sensor_id;sensor_type;location;lat;lon;timestamp;pressure;altitude;pressure_sealevel;temperature;humidity
43878;BME280;29815;48.184;11.268;2023-04-15T00:01:12;94525.38;;;4.85;100.00
43878;BME280;29815;48.184;11.268;2023-04-15T00:03:46;94529.63;;;4.81;100.00
43878;BME280;29815;48.184;11.268;2023-04-15T00:06:17;94523.97;;;4.72;100.00
43878;BME280;29815;48.184;11.268;2023-04-15T00:08:48;94517.56;;;4.68;100.00
43878;BME280;29815;48.184;11.268;2023-04-15T00:11:18;94525.53;;;4.63;100.00
43878;BME280;29815;48.184;11.268;2023-04-15T00:13:48;94521.53;;;4.61;100.00
43878;BME280;29815;48.184;11.268;2023-04-15T00:16:19;94520.72;;;4.65;100.00
43878;BME280;29815;48.184;11.268;2023-04-15T00:18:49;94527.38;;;4.58;100.00
43878;BME280;29815;48.184;11.268;2023-04-15T00:21:19;94519.84;;;4.50;100.00
43878;BME280;29815;48.184;11.268;2023-04-15T00:23:48;94513.69;;;4.44;100.00
43878;BME280;29815;48.184;11.268;2023-04-15T00:26:20;94515.78;;;4.42;100.00
43878;BME280;29815;48.184;11.268;2023-04-15T00:28:50;94512.31;;;4.36;100.00
43878;BME280;29815;48.184;11.268;2023-04-15T00:31:21;94511.47;;;4.31;100.00
43878;BME280;29815;48.184;11.268;2023-04-15T00:33:50;94511.72;;;4.29;100.00
43878;BME280;29815;48.184;11.268;2023-04-15T00:36:22;94510.69;;;4.30;100.00
43878;BME280;29815;48.184;11.268;2023-04-15T00:38:51;94511.97;;;4.28;100.00
43878;BME280;29815;48.184;11.268;2023-04-15T00:41:21;94509.28;;;4.23;100.00
43878;BME280;29815;48.184;11.268;2023-04-15T00:43:51;94505.22;;;4.15;100.00
43878;BME280;29815;48.184;11.268;2023-04-15T00:46:22;94505.00;;;4.22;100.00
43878;BME280;29815;48.184;11.268;2023-04-15T00:48:53;94509.03;;;4.24;100.00
43878;BME280;29815;48.184;11.268;2023-04-15T00:51:23;94510.94;;;4.29;100.00
43878;BME280;29815;48.184;11.268;2023-04-15T00:53:53;94504.50;;;4.25;100.00
43878;BME280;29815;48.184;11.268;2023-04-15T00:56:23;94504.53;;;4.30;100.00
43878;BME280;29815;48.184;11.268;2023-04-15T00:58:52;94505.94;;;4.42;100.00
43878;BME280;29815;48.184;11.268;2023-04-15T01:01:25;94501.41;;;4.43;100.00
43878;BME280;29815;48.184;11.268;2023-04-15T01:03:56;94499.88;;;4.52;100.00
43878;BME280;29815;48.184;11.268;2023-04-15T01:06:27;94506.03;;;4.53;100.00
43878;BME280;29815;48.184;11.268;2023-04-15T01:08:59;94501.28;;;4.60;100.00
43878;BME280;29815;48.184;11.268;2023-04-15T01:11:31;94493.25;;;4.55;100.00
43878;BME280;29815;48.184;11.268;2023-04-15T01:14:02;94489.53;;;4.56;100.00
43878;BME280;29815;48.184;11.268;2023-04-15T01:16:33;94500.34;;;4.44;100.00
43878;BME280;29815;48.184;11.268;2023-04-15T01:19:03;94495.06;;;4.49;100.00
43878;BME280;29815;48.184;11.268;2023-04-15T01:21:32;94501.13;;;4.39;100.00
43878;BME280;29815;48.184;11.268;2023-04-15T01:24:09;94495.56;;;4.46;100.00
43878;BME280;29815;48.184;11.268;2023-04-15T01:26:40;94494.53;;;4.47;100.00
43878;BME280;29815;48.184;11.268;2023-04-15T01:29:12;94488.09;;;4.43;100.00
43878;BME280;29815;48.184;11.268;2023-04-15T01:31:50;94496.38;;;4.47;100.00
43878;BME280;29815;48.184;11.268;2023-04-15T01:34:38;94494.53;;;4.47;100.00
43878;BME280;29815;48.184;11.268;2023-04-15T01:37:26;94495.53;;;4.41;100.00
43878;BME280;29815;48.184;11.268;2023-04-15T01:39:56;94490.50;;;4.45;100.00
43878;BME280;29815;48.184;11.268;2023-04-15T01:42:28;94480.41;;;4.47;100.00
43878;BME280;29815;48.184;11.268;2023-04-15T01:44:59;94483.56;;;4.43;100.00
43878;BME280;29815;48.184;11.268;2023-04-15T01:47:30;94477.16;;;4.34;100.00
43878;BME280;29815;48.184;11.268;2023-04-15T01:50:02;94488.59;;;4.35;100.00
43878;BME280;29815;48.184;11.268;2023-04-15T01:52:33;94481.41;;;4.35;100.00
43878;BME280;29815;48.184;11.268;2023-04-15T01:55:05;94484.59;;;4.32;100.00
43878;BME280;29815;48.184;11.268;2023-04-15T01:57:38;94491.78;;;4.32;100.00
43878;BME280;29815;48.184;11.268;2023-04-15T02:00:11;94496.00;;;4.28;100.00
43878;BME280;29815;48.184;11.268;2023-04-15T02:02:42;94495.47;;;4.26;100.00
43878;BME280;29815;48.184;11.268;2023-04-15T02:05:13;94491.94;;;4.20;100.00
43878;BME280;29815;48.184;11.268;2023-04-15T02:07:48;94492.75;;;4.21;100.00
43878;BME280;29815;48.184;11.268;2023-04-15T02:10:19;94498.06;;;4.21;100.00
43878;BME280;29815;48.184;11.268;2023-04-15T02:12:51;94496.78;;;4.23;100.00
43878;BME280;29815;48.184;11.268;2023-04-15T02:15:23;94502.94;;;4.29;100.00
43878;BME280;29815;48.184;11.268;2023-04-15T02:17:54;94498.41;;;4.29;100.00
43878;BME280;29815;48.184;11.268;2023-04-15T02:20:25;94495.50;;;4.31;100.00
43878;BME280;29815;48.184;11.268;2023-04-15T02:22:59;94500.81;;;4.31;100.00
43878;BME280;29815;48.184;11.268;2023-04-15T02:25:30;94502.38;;;4.27;100.00
43878;BME280;29815;48.184;11.268;2023-04-15T02:28:03;94497.53;;;4.19;100.00
43878;BME280;29815;48.184;11.268;2023-04-15T02:30:34;94499.88;;;4.10;100.00
43878;BME280;29815;48.184;11.268;2023-04-15T02:33:05;94506.72;;;4.01;100.00
43878;BME280;29815;48.184;11.268;2023-04-15T02:35:36;94506.13;;;3.94;100.00
43878;BME280;29815;48.184;11.268;2023-04-15T02:38:10;94506.06;;;3.89;100.00
43878;BME280;29815;48.184;11.268;2023-04-15T02:40:42;94500.72;;;3.84;100.00
43878;BME280;29815;48.184;11.268;2023-04-15T02:43:15;94512.94;;;3.80;100.00
43878;BME280;29815;48.184;11.268;2023-04-15T02:45:47;94503.59;;;3.77;100.00
43878;BME280;29815;48.184;11.268;2023-04-15T02:48:19;94501.84;;;3.93;100.00
43878;BME280;29815;48.184;11.268;2023-04-15T02:50:50;94500.31;;;3.97;100.00
43878;BME280;29815;48.184;11.268;2023-04-15T02:53:21;94493.13;;;3.97;100.00
43878;BME280;29815;48.184;11.268;2023-04-15T02:55:52;94501.09;;;3.97;100.00
43878;BME280;29815;48.184;11.268;2023-04-15T02:58:24;94493.41;;;4.01;100.00
43878;BME280;29815;48.184;11.268;2023-04-15T03:00:55;94487.63;;;4.09;100.00
43878;BME280;29815;48.184;11.268;2023-04-15T03:03:26;94486.88;;;4.19;100.00
43878;BME280;29815;48.184;11.268;2023-04-15T03:05:57;94490.84;;;4.16;100.00
43878;BME280;29815;48.184;11.268;2023-04-15T03:08:29;94491.34;;;4.13;100.00
43878;BME280;29815;48.184;11.268;2023-04-15T03:11:00;94491.16;;;4.20;100.00
43878;BME280;29815;48.184;11.268;2023-04-15T03:13:32;94490.88;;;4.21;100.00
43878;BME280;29815;48.184;11.268;2023-04-15T03:16:11;94486.88;;;4.19;100.00
43878;BME280;29815;48.184;11.268;2023-04-15T03:18:43;94494.63;;;4.20;100.00
43878;BME280;29815;48.184;11.268;2023-04-15T03:21:14;94493.31;;;4.23;100.00
43878;BME280;29815;48.184;11.268;2023-04-15T03:23:48;94497.56;;;4.24;100.00
43878;BME280;29815;48.184;11.268;2023-04-15T03:26:26;94483.41;;;4.18;100.00
43878;BME280;29815;48.184;11.268;2023-04-15T03:29:02;94489.28;;;4.20;100.00
43878;BME280;29815;48.184;11.268;2023-04-15T03:31:33;94491.09;;;4.15;100.00
43878;BME280;29815;48.184;11.268;2023-04-15T03:34:04;94486.63;;;4.20;100.00
43878;BME280;29815;48.184;11.268;2023-04-15T03:36:35;94488.22;;;4.21;100.00
43878;BME280;29815;48.184;11.268;2023-04-15T03:39:06;94484.25;;;4.24;100.00
43878;BME280;29815;48.184;11.268;2023-04-15T03:41:37;94488.75;;;4.18;100.00
43878;BME280;29815;48.184;11.268;2023-04-15T03:44:09;94500.44;;;4.17;100.00
43878;BME280;29815;48.184;11.268;2023-04-15T03:46:40;94502.81;;;4.14;100.00
43878;BME280;29815;48.184;11.268;2023-04-15T03:49:13;94508.66;;;4.11;100.00
43878;BME280;29815;48.184;11.268;2023-04-15T03:51:44;94512.09;;;4.11;100.00
43878;BME280;29815;48.184;11.268;2023-04-15T03:54:15;94517.41;;;4.06;100.00
43878;BME280;29815;48.184;11.268;2023-04-15T03:56:46;94505.41;;;4.03;100.00
43878;BME280;29815;48.184;11.268;2023-04-15T03:59:18;94506.72;;;4.01;100.00
43878;BME280;29815;48.184;11.268;2023-04-15T04:01:49;94510.41;;;3.95;100.00
43878;BME280;29815;48.184;11.268;2023-04-15T04:04:20;94512.50;;;3.93;100.00
43878;BME280;29815;48.184;11.268;2023-04-15T04:06:51;94513.25;;;3.88;100.00
43878;BME280;29815;48.184;11.268;2023-04-15T04:09:22;94512.47;;;3.88;100.00
43878;BME280;29815;48.184;11.268;2023-04-15T04:11:53;94506.59;;;3.86;100.00
43878;BME280;29815;48.184;11.268;2023-04-15T04:14:25;94509.28;;;3.91;100.00
43878;BME280;29815;48.184;11.268;2023-04-15T04:16:58;94511.41;;;3.89;100.00
43878;BME280;29815;48.184;11.268;2023-04-15T04:19:29;94512.81;;;3.96;100.00
43878;BME280;29815;48.184;11.268;2023-04-15T04:22:00;94512.31;;;3.99;100.00
43878;BME280;29815;48.184;11.268;2023-04-15T04:24:31;94515.50;;;4.01;100.00
43878;BME280;29815;48.184;11.268;2023-04-15T04:27:02;94521.38;;;4.03;100.00
43878;BME280;29815;48.184;11.268;2023-04-15T04:29:34;94518.78;;;4.14;100.00
43878;BME280;29815;48.184;11.268;2023-04-15T04:32:05;94513.97;;;4.11;100.00
43878;BME280;29815;48.184;11.268;2023-04-15T04:34:36;94520.94;;;4.17;100.00
43878;BME280;29815;48.184;11.268;2023-04-15T04:37:07;94522.50;;;4.07;100.00
43878;BME280;29815;48.184;11.268;2023-04-15T04:39:38;94519.56;;;4.09;100.00
43878;BME280;29815;48.184;11.268;2023-04-15T04:42:09;94520.63;;;4.08;100.00
43878;BME280;29815;48.184;11.268;2023-04-15T04:44:45;94521.19;;;4.10;100.00
43878;BME280;29815;48.184;11.268;2023-04-15T04:47:16;94522.00;;;4.16;100.00
43878;BME280;29815;48.184;11.268;2023-04-15T04:49:48;94523.88;;;4.15;100.00
43878;BME280;29815;48.184;11.268;2023-04-15T04:52:18;94518.53;;;4.15;100.00
43878;BME280;29815;48.184;11.268;2023-04-15T04:54:49;94520.00;;;4.33;100.00
43878;BME280;29815;48.184;11.268;2023-04-15T04:57:21;94511.78;;;4.34;100.00
43878;BME280;29815;48.184;11.268;2023-04-15T04:59:54;94519.25;;;4.37;100.00
43878;BME280;29815;48.184;11.268;2023-04-15T05:02:25;94521.94;;;4.42;100.00
43878;BME280;29815;48.184;11.268;2023-04-15T05:04:57;94525.94;;;4.45;100.00
43878;BME280;29815;48.184;11.268;2023-04-15T05:07:27;94530.16;;;4.41;100.00
43878;BME280;29815;48.184;11.268;2023-04-15T05:09:59;94524.28;;;4.39;100.00
43878;BME280;29815;48.184;11.268;2023-04-15T05:12:30;94533.38;;;4.43;100.00
43878;BME280;29815;48.184;11.268;2023-04-15T05:15:05;94524.03;;;4.40;100.00
43878;BME280;29815;48.184;11.268;2023-04-15T05:17:36;94521.94;;;4.42;100.00
43878;BME280;29815;48.184;11.268;2023-04-15T05:20:08;94527.81;;;4.45;100.00
43878;BME280;29815;48.184;11.268;2023-04-15T05:22:40;94519.81;;;4.45;100.00
43878;BME280;29815;48.184;11.268;2023-04-15T05:25:11;94519.25;;;4.42;100.00
43878;BME280;29815;48.184;11.268;2023-04-15T05:27:42;94520.03;;;4.38;100.00
43878;BME280;29815;48.184;11.268;2023-04-15T05:30:14;94526.44;;;4.42;100.00
43878;BME280;29815;48.184;11.268;2023-04-15T05:32:45;94524.63;;;4.48;100.00
43878;BME280;29815;48.184;11.268;2023-04-15T05:35:16;94521.38;;;4.40;100.00
43878;BME280;29815;48.184;11.268;2023-04-15T05:37:47;94524.59;;;4.42;100.00
43878;BME280;29815;48.184;11.268;2023-04-15T05:40:18;94520.56;;;4.40;100.00
43878;BME280;29815;48.184;11.268;2023-04-15T05:42:49;94525.19;;;4.50;100.00
43878;BME280;29815;48.184;11.268;2023-04-15T05:45:21;94527.28;;;4.48;100.00
43878;BME280;29815;48.184;11.268;2023-04-15T05:47:52;94533.47;;;4.53;100.00
43878;BME280;29815;48.184;11.268;2023-04-15T05:50:23;94535.38;;;4.58;100.00
43878;BME280;29815;48.184;11.268;2023-04-15T05:52:54;94532.44;;;4.59;100.00
43878;BME280;29815;48.184;11.268;2023-04-15T05:55:25;94534.06;;;4.60;100.00
43878;BME280;29815;48.184;11.268;2023-04-15T05:57:56;94528.72;;;4.65;100.00
43878;BME280;29815;48.184;11.268;2023-04-15T06:00:28;94532.19;;;4.61;100.00
43878;BME280;29815;48.184;11.268;2023-04-15T06:03:01;94535.41;;;4.68;100.00
43878;BME280;29815;48.184;11.268;2023-04-15T06:05:32;94526.34;;;4.69;100.00
43878;BME280;29815;48.184;11.268;2023-04-15T06:08:04;94532.75;;;4.68;100.00
43878;BME280;29815;48.184;11.268;2023-04-15T06:10:36;94532.19;;;4.66;100.00
43878;BME280;29815;48.184;11.268;2023-04-15T06:13:07;94530.66;;;4.75;100.00
43878;BME280;29815;48.184;11.268;2023-04-15T06:15:40;94536.31;;;4.84;100.00
43878;BME280;29815;48.184;11.268;2023-04-15T06:18:10;94527.47;;;4.78;100.00
43878;BME280;29815;48.184;11.268;2023-04-15T06:20:41;94533.91;;;4.82;100.00
43878;BME280;29815;48.184;11.268;2023-04-15T06:23:12;94528.06;;;4.85;100.00
43878;BME280;29815;48.184;11.268;2023-04-15T06:25:43;94533.69;;;4.89;100.00
43878;BME280;29815;48.184;11.268;2023-04-15T06:28:15;94531.56;;;4.91;100.00
43878;BME280;29815;48.184;11.268;2023-04-15T06:30:47;94531.31;;;4.97;100.00
43878;BME280;29815;48.184;11.268;2023-04-15T06:33:18;94528.38;;;4.99;100.00
43878;BME280;29815;48.184;11.268;2023-04-15T06:35:49;94532.88;;;4.93;100.00
43878;BME280;29815;48.184;11.268;2023-04-15T06:38:20;94535.06;;;5.01;100.00
43878;BME280;29815;48.184;11.268;2023-04-15T06:40:51;94534.47;;;4.94;100.00
43878;BME280;29815;48.184;11.268;2023-04-15T06:43:22;94533.16;;;4.92;100.00
43878;BME280;29815;48.184;11.268;2023-04-15T06:45:54;94540.94;;;5.03;100.00
43878;BME280;29815;48.184;11.268;2023-04-15T06:48:25;94531.63;;;5.06;100.00
43878;BME280;29815;48.184;11.268;2023-04-15T06:50:56;94533.50;;;5.10;100.00
43878;BME280;29815;48.184;11.268;2023-04-15T06:53:27;94531.34;;;5.07;100.00
43878;BME280;29815;48.184;11.268;2023-04-15T06:55:58;94543.69;;;5.19;100.00
43878;BME280;29815;48.184;11.268;2023-04-15T06:58:29;94541.00;;;5.24;100.00
43878;BME280;29815;48.184;11.268;2023-04-15T07:01:02;94530.38;;;5.29;100.00
43878;BME280;29815;48.184;11.268;2023-04-15T07:03:33;94525.84;;;5.29;100.00
43878;BME280;29815;48.184;11.268;2023-04-15T07:06:04;94527.75;;;5.44;100.00
43878;BME280;29815;48.184;11.268;2023-04-15T07:08:35;94528.84;;;5.58;100.00
43878;BME280;29815;48.184;11.268;2023-04-15T07:11:06;94525.66;;;5.61;100.00
43878;BME280;29815;48.184;11.268;2023-04-15T07:13:37;94524.63;;;5.77;100.00
43878;BME280;29815;48.184;11.268;2023-04-15T07:16:10;94518.25;;;5.89;100.00
43878;BME280;29815;48.184;11.268;2023-04-15T07:18:40;94520.66;;;5.90;100.00
43878;BME280;29815;48.184;11.268;2023-04-15T07:21:11;94521.47;;;5.96;100.00
43878;BME280;29815;48.184;11.268;2023-04-15T07:23:42;94523.63;;;6.09;100.00
43878;BME280;29815;48.184;11.268;2023-04-15T07:26:13;94524.69;;;6.18;100.00
43878;BME280;29815;48.184;11.268;2023-04-15T07:28:44;94527.09;;;6.25;100.00
43878;BME280;29815;48.184;11.268;2023-04-15T07:31:17;94532.69;;;6.33;100.00
43878;BME280;29815;48.184;11.268;2023-04-15T07:33:48;94531.09;;;6.37;100.00
43878;BME280;29815;48.184;11.268;2023-04-15T07:36:18;94536.44;;;6.37;100.00
43878;BME280;29815;48.184;11.268;2023-04-15T07:38:49;94540.97;;;6.42;100.00
43878;BME280;29815;48.184;11.268;2023-04-15T07:41:20;94540.72;;;6.49;100.00
43878;BME280;29815;48.184;11.268;2023-04-15T07:43:51;94540.19;;;6.41;100.00
43878;BME280;29815;48.184;11.268;2023-04-15T07:46:23;94540.44;;;6.45;100.00
43878;BME280;29815;48.184;11.268;2023-04-15T07:48:55;94543.38;;;6.49;100.00
43878;BME280;29815;48.184;11.268;2023-04-15T07:51:26;94546.06;;;6.54;100.00
43878;BME280;29815;48.184;11.268;2023-04-15T07:53:58;94536.44;;;6.53;100.00
43878;BME280;29815;48.184;11.268;2023-04-15T07:56:28;94533.72;;;6.58;100.00
43878;BME280;29815;48.184;11.268;2023-04-15T07:58:59;94547.91;;;6.63;100.00
43878;BME280;29815;48.184;11.268;2023-04-15T08:01:34;94544.44;;;6.73;100.00
43878;BME280;29815;48.184;11.268;2023-04-15T08:04:05;94550.28;;;6.85;100.00
43878;BME280;29815;48.184;11.268;2023-04-15T08:06:36;94542.28;;;6.80;100.00
43878;BME280;29815;48.184;11.268;2023-04-15T08:09:08;94543.03;;;6.91;100.00
43878;BME280;29815;48.184;11.268;2023-04-15T08:11:40;94530.72;;;7.00;100.00
43878;BME280;29815;48.184;11.268;2023-04-15T08:14:10;94541.94;;;7.07;100.00
43878;BME280;29815;48.184;11.268;2023-04-15T08:16:43;94530.13;;;7.18;100.00
43878;BME280;29815;48.184;11.268;2023-04-15T08:19:13;94533.81;;;7.32;100.00
43878;BME280;29815;48.184;11.268;2023-04-15T08:21:44;94529.22;;;7.43;100.00
43878;BME280;29815;48.184;11.268;2023-04-15T08:24:15;94530.22;;;7.57;100.00
43878;BME280;29815;48.184;11.268;2023-04-15T08:26:46;94537.63;;;7.70;100.00
43878;BME280;29815;48.184;11.268;2023-04-15T08:29:17;94530.38;;;7.76;100.00
43878;BME280;29815;48.184;11.268;2023-04-15T08:31:49;94539.19;;;7.81;100.00
43878;BME280;29815;48.184;11.268;2023-04-15T08:34:20;94532.09;;;8.01;100.00
43878;BME280;29815;48.184;11.268;2023-04-15T08:36:51;94528.28;;;8.12;100.00
43878;BME280;29815;48.184;11.268;2023-04-15T08:39:21;94525.75;;;8.26;100.00
43878;BME280;29815;48.184;11.268;2023-04-15T08:41:59;94523.03;;;8.31;100.00
43878;BME280;29815;48.184;11.268;2023-04-15T08:44:34;94523.31;;;8.34;100.00
43878;BME280;29815;48.184;11.268;2023-04-15T08:47:07;94525.63;;;8.46;100.00
43878;BME280;29815;48.184;11.268;2023-04-15T08:49:39;94520.75;;;8.48;100.00
43878;BME280;29815;48.184;11.268;2023-04-15T08:52:11;94516.56;;;8.42;100.00
43878;BME280;29815;48.184;11.268;2023-04-15T08:54:42;94523.59;;;8.33;100.00
43878;BME280;29815;48.184;11.268;2023-04-15T08:57:14;94526.03;;;8.24;100.00
43878;BME280;29815;48.184;11.268;2023-04-15T08:59:46;94526.03;;;8.24;100.00
43878;BME280;29815;48.184;11.268;2023-04-15T09:02:20;94531.16;;;8.21;100.00
43878;BME280;29815;48.184;11.268;2023-04-15T09:04:52;94536.81;;;8.19;100.00
43878;BME280;29815;48.184;11.268;2023-04-15T09:07:23;94533.06;;;8.20;100.00
43878;BME280;29815;48.184;11.268;2023-04-15T09:09:54;94537.38;;;8.16;100.00
43878;BME280;29815;48.184;11.268;2023-04-15T09:12:25;94533.81;;;8.21;100.00
43878;BME280;29815;48.184;11.268;2023-04-15T09:14:56;94543.16;;;8.28;100.00
43878;BME280;29815;48.184;11.268;2023-04-15T09:17:32;94537.00;;;8.33;100.00
43878;BME280;29815;48.184;11.268;2023-04-15T09:20:11;94544.13;;;8.47;100.00
43878;BME280;29815;48.184;11.268;2023-04-15T09:22:47;94545.00;;;8.38;100.00
43878;BME280;29815;48.184;11.268;2023-04-15T09:25:27;94537.19;;;8.41;100.00
43878;BME280;29815;48.184;11.268;2023-04-15T09:28:02;94540.06;;;8.50;100.00
43878;BME280;29815;48.184;11.268;2023-04-15T09:30:34;94548.06;;;8.55;100.00
43878;BME280;29815;48.184;11.268;2023-04-15T09:33:06;94547.47;;;8.63;100.00
43878;BME280;29815;48.184;11.268;2023-04-15T09:35:39;94541.31;;;8.63;100.00
43878;BME280;29815;48.184;11.268;2023-04-15T09:38:11;94542.59;;;8.70;100.00
43878;BME280;29815;48.184;11.268;2023-04-15T09:40:42;94548.31;;;8.88;100.00
43878;BME280;29815;48.184;11.268;2023-04-15T09:43:12;94557.78;;;9.04;100.00
43878;BME280;29815;48.184;11.268;2023-04-15T09:45:50;94555.34;;;9.07;100.00
43878;BME280;29815;48.184;11.268;2023-04-15T09:48:24;94557.38;;;9.21;100.00
43878;BME280;29815;48.184;11.268;2023-04-15T09:50:57;94564.00;;;9.28;100.00
43878;BME280;29815;48.184;11.268;2023-04-15T09:53:29;94555.06;;;9.33;100.00
43878;BME280;29815;48.184;11.268;2023-04-15T09:56:03;94560.91;;;9.40;100.00
43878;BME280;29815;48.184;11.268;2023-04-15T09:58:36;94555.75;;;9.43;100.00
43878;BME280;29815;48.184;11.268;2023-04-15T10:01:07;94556.78;;;9.47;100.00
43878;BME280;29815;48.184;11.268;2023-04-15T10:03:41;94565.22;;;9.60;100.00
43878;BME280;29815;48.184;11.268;2023-04-15T10:06:13;94563.50;;;9.69;100.00
43878;BME280;29815;48.184;11.268;2023-04-15T10:08:45;94561.44;;;9.61;100.00
43878;BME280;29815;48.184;11.268;2023-04-15T10:11:17;94559.13;;;9.54;100.00
43878;BME280;29815;48.184;11.268;2023-04-15T10:13:50;94561.31;;;9.52;100.00
43878;BME280;29815;48.184;11.268;2023-04-15T10:16:22;94563.81;;;9.43;100.00
43878;BME280;29815;48.184;11.268;2023-04-15T10:19:01;94557.59;;;9.48;100.00
43878;BME280;29815;48.184;11.268;2023-04-15T10:21:33;94565.94;;;9.46;100.00
43878;BME280;29815;48.184;11.268;2023-04-15T10:24:05;94563.53;;;9.45;100.00
43878;BME280;29815;48.184;11.268;2023-04-15T10:26:37;94565.22;;;9.60;100.00
43878;BME280;29815;48.184;11.268;2023-04-15T10:29:08;94567.00;;;9.69;100.00
43878;BME280;29815;48.184;11.268;2023-04-15T10:31:40;94560.47;;;9.75;100.00
43878;BME280;29815;48.184;11.268;2023-04-15T10:34:13;94569.91;;;9.73;100.00
43878;BME280;29815;48.184;11.268;2023-04-15T10:36:45;94570.13;;;9.76;100.00
43878;BME280;29815;48.184;11.268;2023-04-15T10:39:39;94570.59;;;9.83;100.00
43878;BME280;29815;48.184;11.268;2023-04-15T10:42:13;94567.97;;;9.97;100.00
43878;BME280;29815;48.184;11.268;2023-04-15T10:44:48;94573.44;;;10.11;100.00
43878;BME280;29815;48.184;11.268;2023-04-15T10:47:21;94574.56;;;10.29;100.00
43878;BME280;29815;48.184;11.268;2023-04-15T10:49:57;94559.25;;;10.43;95.33
43878;BME280;29815;48.184;11.268;2023-04-15T10:52:29;94563.41;;;10.54;99.51
43878;BME280;29815;48.184;11.268;2023-04-15T10:55:12;94568.34;;;10.66;98.73
43878;BME280;29815;48.184;11.268;2023-04-15T10:57:45;94575.19;;;10.58;91.96
43878;BME280;29815;48.184;11.268;2023-04-15T11:00:18;94577.00;;;10.44;89.27
43878;BME280;29815;48.184;11.268;2023-04-15T11:02:53;94565.09;;;10.31;92.37
43878;BME280;29815;48.184;11.268;2023-04-15T11:05:51;94574.63;;;10.24;92.35
43878;BME280;29815;48.184;11.268;2023-04-15T11:08:55;94563.78;;;10.10;96.63
43878;BME280;29815;48.184;11.268;2023-04-15T11:12:04;94569.81;;;10.02;100.00
43878;BME280;29815;48.184;11.268;2023-04-15T11:14:40;94580.03;;;10.00;97.25
43878;BME280;29815;48.184;11.268;2023-04-15T11:17:11;94568.63;;;9.89;100.00
43878;BME280;29815;48.184;11.268;2023-04-15T11:19:42;94571.97;;;9.81;95.30
43878;BME280;29815;48.184;11.268;2023-04-15T11:22:14;94572.31;;;9.74;97.07
43878;BME280;29815;48.184;11.268;2023-04-15T11:24:48;94570.53;;;9.65;97.95
43878;BME280;29815;48.184;11.268;2023-04-15T11:27:21;94572.84;;;9.53;100.00
43878;BME280;29815;48.184;11.268;2023-04-15T11:29:52;94582.91;;;9.42;100.00
43878;BME280;29815;48.184;11.268;2023-04-15T11:32:23;94591.19;;;9.22;100.00
43878;BME280;29815;48.184;11.268;2023-04-15T11:34:54;94590.53;;;9.06;100.00
43878;BME280;29815;48.184;11.268;2023-04-15T11:37:31;94599.56;;;8.86;100.00
43878;BME280;29815;48.184;11.268;2023-04-15T11:40:02;94601.31;;;8.72;100.00
43878;BME280;29815;48.184;11.268;2023-04-15T11:42:33;94612.94;;;8.57;100.00
43878;BME280;29815;48.184;11.268;2023-04-15T11:45:18;94604.47;;;8.45;100.00
43878;BME280;29815;48.184;11.268;2023-04-15T11:47:49;94609.31;;;8.43;100.00
43878;BME280;29815;48.184;11.268;2023-04-15T11:50:22;94610.41;;;8.32;100.00
43878;BME280;29815;48.184;11.268;2023-04-15T11:52:54;94598.38;;;8.29;100.00
43878;BME280;29815;48.184;11.268;2023-04-15T11:55:25;94603.81;;;8.19;100.00
43878;BME280;29815;48.184;11.268;2023-04-15T11:58:09;94609.47;;;8.12;100.00
43878;BME280;29815;48.184;11.268;2023-04-15T12:00:47;94604.63;;;8.20;100.00
43878;BME280;29815;48.184;11.268;2023-04-15T12:03:23;94612.09;;;8.23;100.00
43878;BME280;29815;48.184;11.268;2023-04-15T12:06:10;94608.56;;;8.32;100.00
43878;BME280;29815;48.184;11.268;2023-04-15T12:08:58;94614.97;;;8.41;100.00
43878;BME280;29815;48.184;11.268;2023-04-15T12:11:37;94615.13;;;8.55;100.00
43878;BME280;29815;48.184;11.268;2023-04-15T12:14:19;94619.03;;;8.73;100.00
43878;BME280;29815;48.184;11.268;2023-04-15T12:16:52;94617.06;;;8.78;100.00
43878;BME280;29815;48.184;11.268;2023-04-15T12:19:26;94618.56;;;8.95;100.00
43878;BME280;29815;48.184;11.268;2023-04-15T12:21:59;94627.53;;;9.09;100.00
43878;BME280;29815;48.184;11.268;2023-04-15T12:24:33;94625.34;;;9.16;100.00
43878;BME280;29815;48.184;11.268;2023-04-15T12:27:04;94623.13;;;9.23;100.00
43878;BME280;29815;48.184;11.268;2023-04-15T12:29:36;94623.53;;;9.35;100.00
43878;BME280;29815;48.184;11.268;2023-04-15T12:32:08;94619.75;;;9.36;99.82
43878;BME280;29815;48.184;11.268;2023-04-15T12:34:42;94621.81;;;9.44;98.08
43878;BME280;29815;48.184;11.268;2023-04-15T12:37:13;94637.88;;;9.49;100.00
43878;BME280;29815;48.184;11.268;2023-04-15T12:39:46;94636.84;;;9.45;97.00
43878;BME280;29815;48.184;11.268;2023-04-15T12:42:17;94641.59;;;9.54;90.86
43878;BME280;29815;48.184;11.268;2023-04-15T12:44:47;94645.53;;;9.61;88.75
43878;BME280;29815;48.184;11.268;2023-04-15T12:47:17;94649.66;;;9.54;77.91
43878;BME280;29815;48.184;11.268;2023-04-15T12:49:46;94656.97;;;9.48;76.32
43878;BME280;29815;48.184;11.268;2023-04-15T12:52:16;94651.44;;;9.34;73.29
43878;BME280;29815;48.184;11.268;2023-04-15T12:54:47;94653.41;;;9.29;72.91
43878;BME280;29815;48.184;11.268;2023-04-15T12:57:17;94665.00;;;9.24;76.15
43878;BME280;29815;48.184;11.268;2023-04-15T12:59:46;94662.13;;;9.15;75.59
43878;BME280;29815;48.184;11.268;2023-04-15T13:02:16;94661.63;;;9.08;76.85
43878;BME280;29815;48.184;11.268;2023-04-15T13:04:45;94676.69;;;9.04;78.47
43878;BME280;29815;48.184;11.268;2023-04-15T13:07:15;94675.69;;;9.00;77.14
43878;BME280;29815;48.184;11.268;2023-04-15T13:09:44;94676.28;;;8.92;80.61
43878;BME280;29815;48.184;11.268;2023-04-15T13:12:16;94680.88;;;8.87;83.58
43878;BME280;29815;48.184;11.268;2023-04-15T13:14:45;94683.31;;;8.83;83.80
43878;BME280;29815;48.184;11.268;2023-04-15T13:17:15;94687.88;;;8.82;83.49